Time;durP1;ratioP1;P1;durP2;ratioP2;P2;SDS_P1;SDS_P2;PMS_P1;PMS_P2;Temp;Humidity;BMP_temperature;BMP_pressure;BME280_temperature;BME280_humidity;BME280_pressure;Samples;Min_cycle;Max_cycle;Signal;HPM_P1;HPM_P2
2023/10/31 04:43:34;;;;;;;14.23;6.90;;;;;;;11.44;100.00;99274.84;6060505;28;20571;-82
2023/10/31 04:46:37;;;;;;;11.00;7.43;;;;;;;11.38;100.00;99286.47;5311805;33;34681;-82
2023/10/31 04:49:40;;;;;;;14.45;6.78;;;;;;;11.32;100.00;99281.94;5312323;33;34432;-81
2023/10/31 04:52:43;;;;;;;11.05;6.60;;;;;;;11.34;100.00;99266.34;5311927;33;33718;-81
2023/10/31 04:55:46;;;;;;;17.50;7.45;;;;;;;11.33;100.00;99257.44;5325412;33;34652;-80
2023/10/31 04:58:49;;;;;;;12.00;7.00;;;;;;;11.39;100.00;99261.16;5302386;33;33888;-82
2023/10/31 05:01:52;;;;;;;15.20;7.25;;;;;;;11.43;100.00;99266.97;5306081;33;34592;-82
2023/10/31 05:04:57;;;;;;;10.35;6.70;;;;;;;11.50;100.00;99252.44;5324754;33;33981;-82
2023/10/31 05:08:00;;;;;;;12.13;6.72;;;;;;;11.55;100.00;99249.09;5325054;33;34094;-82
2023/10/31 05:11:04;;;;;;;14.57;7.93;;;;;;;11.45;100.00;99240.63;5311669;33;33861;-83
2023/10/31 05:14:10;;;;;;;11.18;7.20;;;;;;;11.45;100.00;99241.47;5324671;33;33915;-86
2023/10/31 05:17:13;;;;;;;12.52;6.87;;;;;;;11.43;100.00;99223.84;5311957;33;33583;-86
2023/10/31 05:20:16;;;;;;;11.95;6.97;;;;;;;11.46;100.00;99224.25;5311808;33;33581;-82
2023/10/31 05:23:19;;;;;;;13.40;7.15;;;;;;;11.51;100.00;99226.31;5311711;33;33822;-83
2023/10/31 05:26:22;;;;;;;11.60;7.20;;;;;;;11.48;100.00;99215.97;5300619;33;34053;-83
2023/10/31 05:29:25;;;;;;;13.45;6.95;;;;;;;11.52;100.00;99222.56;5324803;33;33897;-83
2023/10/31 05:32:28;;;;;;;11.12;6.72;;;;;;;11.58;100.00;99246.81;5311749;33;34400;-83
2023/10/31 05:35:32;;;;;;;10.38;7.07;;;;;;;11.67;100.00;99266.28;5312078;33;33646;-82
2023/10/31 05:38:35;;;;;;;10.38;6.80;;;;;;;11.83;100.00;99277.63;5325152;33;34452;-83
2023/10/31 05:41:38;;;;;;;15.13;7.75;;;;;;;11.79;100.00;99298.81;5311692;33;33826;-83
2023/10/31 05:44:41;;;;;;;12.15;7.53;;;;;;;11.84;100.00;99299.00;5310894;33;34346;-83
2023/10/31 05:47:44;;;;;;;12.00;7.57;;;;;;;11.87;100.00;99295.06;5311234;33;34718;-83
2023/10/31 05:50:47;;;;;;;13.90;7.80;;;;;;;11.91;100.00;99275.56;5310548;33;33781;-83
2023/10/31 05:53:50;;;;;;;14.05;7.95;;;;;;;11.84;100.00;99263.94;5310809;33;33494;-82
2023/10/31 05:56:53;;;;;;;13.55;7.87;;;;;;;11.81;100.00;99258.97;5313951;33;34028;-82
2023/10/31 05:59:56;;;;;;;13.13;8.02;;;;;;;11.70;100.00;99256.94;5324135;33;34016;-82
2023/10/31 06:02:59;;;;;;;13.05;7.80;;;;;;;11.58;100.00;99257.59;5325230;33;33788;-82
2023/10/31 06:06:02;;;;;;;15.10;7.75;;;;;;;11.63;100.00;99272.31;5326292;33;33819;-82
2023/10/31 06:09:05;;;;;;;16.55;9.27;;;;;;;11.64;100.00;99257.78;5323851;33;34659;-82
2023/10/31 06:12:08;;;;;;;17.30;8.90;;;;;;;11.62;100.00;99249.91;5317325;33;35143;-82
2023/10/31 06:15:11;;;;;;;14.90;7.60;;;;;;;11.65;100.00;99224.41;5331155;33;34667;-83
2023/10/31 06:18:14;;;;;;;18.85;9.85;;;;;;;11.69;100.00;99247.19;5310672;33;33769;-82
2023/10/31 06:21:17;;;;;;;11.82;8.02;;;;;;;11.76;100.00;99256.09;5311145;33;34923;-82
2023/10/31 06:24:20;;;;;;;12.90;8.18;;;;;;;11.74;100.00;99272.47;5310493;33;34527;-82
2023/10/31 06:27:23;;;;;;;13.00;8.18;;;;;;;11.80;100.00;99262.72;5310920;33;33847;-82
2023/10/31 06:30:26;;;;;;;13.68;8.23;;;;;;;11.80;100.00;99244.66;5325283;33;33823;-82
2023/10/31 06:33:30;;;;;;;14.43;7.55;;;;;;;11.80;100.00;99250.06;5313959;33;33817;-82
2023/10/31 06:36:34;;;;;;;13.65;8.00;;;;;;;11.85;100.00;99254.00;5301840;33;34694;-83
2023/10/31 06:39:36;;;;;;;15.30;8.82;;;;;;;11.93;100.00;99259.16;5311106;33;33994;-83
2023/10/31 06:42:39;;;;;;;14.07;8.07;;;;;;;11.95;100.00;99273.25;5313336;33;34062;-82
2023/10/31 06:45:42;;;;;;;14.52;8.20;;;;;;;11.98;100.00;99262.88;5312586;33;33643;-82
2023/10/31 06:48:45;;;;;;;12.93;8.10;;;;;;;12.08;100.00;99253.47;5316330;33;33714;-82
2023/10/31 06:51:48;;;;;;;15.40;7.93;;;;;;;12.16;100.00;99248.66;5313308;33;33842;-83
2023/10/31 06:54:51;;;;;;;14.80;8.40;;;;;;;12.12;100.00;99265.50;5313566;33;33935;-81
2023/10/31 06:57:54;;;;;;;12.73;7.03;;;;;;;12.15;100.00;99259.69;5329545;33;33693;-82
2023/10/31 07:00:59;;;;;;;13.85;7.40;;;;;;;12.14;100.00;99252.63;5316610;33;34158;-81
2023/10/31 07:04:02;;;;;;;14.70;7.97;;;;;;;12.16;100.00;99264.84;5303663;33;34157;-81
2023/10/31 07:07:06;;;;;;;15.43;8.55;;;;;;;12.16;100.00;99274.81;5301537;33;34521;-82
2023/10/31 07:10:09;;;;;;;12.65;7.60;;;;;;;12.19;100.00;99282.47;5313009;33;33893;-82
2023/10/31 07:13:12;;;;;;;13.38;7.90;;;;;;;12.17;100.00;99263.00;5301584;33;34063;-82
2023/10/31 07:16:15;;;;;;;12.98;8.05;;;;;;;12.22;100.00;99242.41;5326494;33;34364;-81
2023/10/31 07:19:18;;;;;;;14.32;7.22;;;;;;;12.33;100.00;99237.38;5303538;33;33922;-82
2023/10/31 07:22:22;;;;;;;12.15;7.05;;;;;;;12.46;100.00;99246.22;5316841;33;34177;-82
2023/10/31 07:25:26;;;;;;;12.52;7.80;;;;;;;12.58;100.00;99232.84;5326848;33;34554;-83
2023/10/31 07:28:28;;;;;;;16.00;8.13;;;;;;;12.68;100.00;99241.28;5327146;33;33262;-83
2023/10/31 07:31:31;;;;;;;12.20;6.72;;;;;;;12.74;100.00;99236.88;5326871;33;33881;-83
2023/10/31 07:34:34;;;;;;;13.65;8.18;;;;;;;12.77;100.00;99238.31;5314386;33;34794;-87
2023/10/31 07:37:38;;;;;;;15.20;7.15;;;;;;;12.83;100.00;99246.34;5315170;33;33510;-87
2023/10/31 07:40:40;;;;;;;13.65;7.97;;;;;;;12.88;100.00;99246.53;5296582;33;34284;-87
2023/10/31 07:43:44;;;;;;;17.25;8.00;;;;;;;12.98;100.00;99226.28;5296490;33;34998;-87
2023/10/31 07:46:47;;;;;;;16.87;7.97;;;;;;;13.07;100.00;99219.53;5299046;33;33466;-82
2023/10/31 07:49:50;;;;;;;16.73;8.77;;;;;;;13.17;100.00;99225.28;5315817;33;34393;-82
2023/10/31 07:52:53;;;;;;;17.55;7.57;;;;;;;13.24;100.00;99244.13;5301243;33;34383;-82
2023/10/31 07:55:56;;;;;;;13.43;8.25;;;;;;;13.27;100.00;99241.81;5314342;33;34015;-81
2023/10/31 07:58:59;;;;;;;15.50;7.57;;;;;;;13.42;100.00;99230.66;5314951;33;33952;-82
2023/10/31 08:02:02;;;;;;;9.60;5.62;;;;;;;13.51;100.00;99223.91;5306972;33;34014;-84
2023/10/31 08:05:07;;;;;;;13.23;6.32;;;;;;;13.71;100.00;99220.12;5301245;33;33702;-84
2023/10/31 08:08:10;;;;;;;14.38;6.78;;;;;;;14.11;100.00;99231.28;5328600;33;34601;-84
2023/10/31 08:11:13;;;;;;;12.02;7.18;;;;;;;14.44;100.00;99221.84;5309719;33;34042;-84
2023/10/31 08:14:16;;;;;;;16.67;7.47;;;;;;;14.72;100.00;99223.97;5295574;33;33773;-84
2023/10/31 08:17:19;;;;;;;10.73;6.90;;;;;;;15.09;100.00;99227.28;5305601;33;33841;-83
2023/10/31 08:20:22;;;;;;;12.15;6.68;;;;;;;15.43;100.00;99232.91;5319692;33;34754;-84
2023/10/31 08:23:27;;;;;;;11.32;6.07;;;;;;;15.55;100.00;99225.59;5295456;33;33621;-83
2023/10/31 08:26:31;;;;;;;7.95;5.40;;;;;;;15.69;100.00;99222.66;5308158;33;33923;-83
2023/10/31 08:29:34;;;;;;;10.32;5.53;;;;;;;15.51;100.00;99220.91;5313102;33;33893;-83
2023/10/31 08:32:37;;;;;;;9.80;5.12;;;;;;;15.54;100.00;99231.28;5295793;33;33407;-83
2023/10/31 08:35:41;;;;;;;10.43;5.53;;;;;;;15.56;100.00;99227.25;5310172;33;33386;-83
2023/10/31 08:38:44;;;;;;;10.75;5.75;;;;;;;15.58;100.00;99238.69;5320273;33;34345;-84
2023/10/31 08:41:54;;;;;;;9.07;5.10;;;;;;;15.69;100.00;99219.94;5310918;33;33747;-84
2023/10/31 08:44:57;;;;;;;8.55;3.97;;;;;;;15.83;100.00;99205.03;5294368;33;33307;-83
2023/10/31 08:48:01;;;;;;;10.00;4.10;;;;;;;15.95;100.00;99203.09;5306625;33;33938;-83
2023/10/31 08:51:04;;;;;;;8.73;3.92;;;;;;;15.99;100.00;99206.97;5329238;33;33658;-83
2023/10/31 08:54:07;;;;;;;5.53;3.97;;;;;;;16.12;100.00;99194.16;5303233;33;33986;-84
2023/10/31 08:57:09;;;;;;;8.00;4.72;;;;;;;16.31;100.00;99210.03;5333351;33;33868;-84
2023/10/31 09:00:13;;;;;;;9.18;4.28;;;;;;;16.49;100.00;99198.09;5331683;33;34057;-83
2023/10/31 09:03:16;;;;;;;7.50;4.07;;;;;;;16.66;100.00;99203.56;5305846;33;34003;-83
2023/10/31 09:06:19;;;;;;;9.65;4.30;;;;;;;16.73;100.00;99193.37;5338830;33;34564;-84
2023/10/31 09:09:22;;;;;;;7.78;4.65;;;;;;;16.89;100.00;99180.84;5314310;33;34109;-83
2023/10/31 09:12:25;;;;;;;5.53;3.95;;;;;;;16.99;100.00;99175.59;5338782;33;34891;-84
2023/10/31 09:15:28;;;;;;;8.57;4.20;;;;;;;17.05;100.00;99178.34;5342054;33;35471;-83
2023/10/31 09:18:32;;;;;;;8.25;4.80;;;;;;;17.26;100.00;99183.03;5312662;33;33321;-83
2023/10/31 09:21:35;;;;;;;6.93;4.25;;;;;;;17.47;100.00;99162.34;5308515;33;34241;-83
2023/10/31 09:24:40;;;;;;;11.32;4.53;;;;;;;17.62;100.00;99156.28;5310913;33;34728;-83
2023/10/31 09:27:45;;;;;;;16.05;4.00;;;;;;;17.66;100.00;99155.50;5318286;33;33901;-83
2023/10/31 09:30:49;;;;;;;8.73;4.40;;;;;;;17.86;100.00;99160.41;5311113;33;33698;-83
2023/10/31 09:33:52;;;;;;;7.28;4.15;;;;;;;17.79;100.00;99156.25;5335330;33;33774;-82
2023/10/31 09:36:56;;;;;;;7.78;4.70;;;;;;;18.04;100.00;99139.34;5326927;33;34389;-82
2023/10/31 09:39:59;;;;;;;7.18;3.65;;;;;;;18.15;100.00;99132.91;5302530;33;35275;-81
2023/10/31 09:43:02;;;;;;;8.13;3.75;;;;;;;18.19;100.00;99125.03;5274901;33;33950;-82
2023/10/31 09:46:05;;;;;;;8.35;3.80;;;;;;;18.23;100.00;99134.34;5307068;33;33648;-85
2023/10/31 09:49:10;;;;;;;6.97;3.90;;;;;;;18.14;100.00;99134.00;5321756;33;34014;-86
2023/10/31 09:52:14;;;;;;;5.45;3.47;;;;;;;18.21;100.00;99148.22;5320355;33;35015;-87
2023/10/31 09:55:19;;;;;;;7.53;3.22;;;;;;;18.36;100.00;99129.28;5311643;33;34014;-83
2023/10/31 09:58:22;;;;;;;8.07;3.37;;;;;;;18.44;100.00;99119.00;5327913;33;33502;-82
2023/10/31 10:01:25;;;;;;;4.97;3.20;;;;;;;18.47;100.00;99113.03;5310995;33;34206;-82
2023/10/31 10:04:29;;;;;;;6.62;3.20;;;;;;;18.54;100.00;99109.00;5323307;33;34356;-83
2023/10/31 10:07:35;;;;;;;4.20;2.53;;;;;;;18.59;100.00;99102.75;5331197;33;34950;-82
2023/10/31 10:10:37;;;;;;;6.62;2.87;;;;;;;18.68;95.28;99081.28;5355347;33;34183;-83
2023/10/31 10:13:43;;;;;;;3.72;2.40;;;;;;;18.65;93.17;99065.44;5310042;33;34037;-83
2023/10/31 10:16:46;;;;;;;4.53;2.97;;;;;;;18.77;92.81;99052.47;5311038;33;33893;-83
2023/10/31 10:20:11;;;;;;;3.17;2.40;;;;;;;18.74;98.68;99063.91;5313176;33;33647;-83
2023/10/31 10:23:16;;;;;;;6.10;2.80;;;;;;;18.76;87.49;99035.28;5332761;33;33810;-83
2023/10/31 10:26:25;;;;;;;5.40;2.62;;;;;;;18.88;86.65;99045.16;5330029;33;34648;-83
2023/10/31 10:29:28;;;;;;;3.62;2.22;;;;;;;18.93;90.26;99028.84;5313330;33;33864;-83
2023/10/31 10:32:31;;;;;;;4.28;2.28;;;;;;;18.98;86.51;99026.97;5313151;33;33513;-83
2023/10/31 10:35:34;;;;;;;3.08;2.10;;;;;;;19.04;89.14;99019.59;5290671;33;33898;-83
2023/10/31 10:38:39;;;;;;;4.62;2.40;;;;;;;19.09;85.25;99003.25;5312595;33;33861;-82
2023/10/31 10:41:45;;;;;;;6.45;2.55;;;;;;;19.33;86.18;98991.84;5338831;33;33628;-83
2023/10/31 10:44:50;;;;;;;4.10;2.20;;;;;;;19.44;83.44;98986.16;5300523;33;34243;-83
2023/10/31 10:47:57;;;;;;;6.90;2.55;;;;;;;19.55;81.24;98986.19;5323800;33;35153;-83
2023/10/31 10:51:05;;;;;;;5.45;2.20;;;;;;;19.61;80.83;98988.66;5329037;33;33858;-83
2023/10/31 10:54:11;;;;;;;4.28;2.20;;;;;;;19.64;80.08;98985.38;5322863;33;33871;-83
2023/10/31 10:57:41;;;;;;;2.25;1.83;;;;;;;19.71;81.65;98985.13;5317110;33;33859;-83
2023/10/31 11:00:45;;;;;;;4.68;2.03;;;;;;;19.69;79.34;98969.03;5323093;33;33846;-83
2023/10/31 11:03:49;;;;;;;8.18;2.53;;;;;;;19.86;81.38;98954.25;5312384;33;33418;-87
2023/10/31 11:06:53;;;;;;;4.87;2.20;;;;;;;20.11;84.78;98942.50;5330789;33;33797;-87
2023/10/31 11:09:58;;;;;;;3.55;2.00;;;;;;;20.25;82.83;98940.03;5314051;33;33518;-83
2023/10/31 11:13:01;;;;;;;8.75;2.40;;;;;;;20.39;73.26;98930.16;5321374;33;33904;-83
2023/10/31 11:16:13;;;;;;;5.20;2.10;;;;;;;20.69;71.65;98925.72;5311875;33;33863;-83
2023/10/31 11:19:16;;;;;;;5.97;2.30;;;;;;;20.97;74.90;98910.50;5325323;33;33832;-83
2023/10/31 11:22:19;;;;;;;4.55;2.17;;;;;;;20.54;73.47;98893.78;5314173;33;33500;-81
2023/10/31 11:25:25;;;;;;;4.35;1.70;;;;;;;20.37;70.30;98913.22;5319808;33;33986;-81
2023/10/31 11:28:35;;;;;;;6.50;2.50;;;;;;;19.87;71.01;98906.75;5314426;33;33968;-81
2023/10/31 11:31:39;;;;;;;3.83;2.37;;;;;;;19.45;74.81;98905.09;5298545;33;33833;-81
2023/10/31 11:34:42;;;;;;;4.85;2.53;;;;;;;19.15;74.15;98916.78;5325368;33;33630;-81
2023/10/31 11:37:52;;;;;;;5.22;2.90;;;;;;;18.94;81.02;98911.28;5299491;33;33842;-81
2023/10/31 11:41:01;;;;;;;5.78;3.10;;;;;;;18.61;85.73;98909.78;5324687;33;33350;-82
2023/10/31 11:44:04;;;;;;;9.07;3.33;;;;;;;18.25;93.31;98887.00;5319389;33;33970;-81
2023/10/31 11:47:15;;;;;;;6.90;3.50;;;;;;;18.10;97.73;98853.13;5312296;33;33600;-81
2023/10/31 11:50:19;;;;;;;7.03;3.50;;;;;;;18.07;97.98;98839.22;5318192;33;34904;-81
2023/10/31 11:53:22;;;;;;;4.68;3.45;;;;;;;17.78;99.20;98855.94;5307740;33;33485;-81
2023/10/31 11:56:26;;;;;;;7.82;3.70;;;;;;;17.66;98.79;98863.47;5294876;33;33770;-81
2023/10/31 11:59:38;;;;;;;5.82;3.62;;;;;;;17.41;100.00;98867.63;5328177;33;33450;-81
2023/10/31 12:02:41;;;;;;;7.00;3.65;;;;;;;17.28;100.00;98859.06;5328927;33;34660;-81
2023/10/31 12:05:55;;;;;;;5.97;3.12;;;;;;;17.31;100.00;98855.84;5316851;33;34690;-81
2023/10/31 12:09:00;;;;;;;7.20;3.37;;;;;;;16.94;100.00;98837.56;5328312;33;33487;-81
2023/10/31 12:12:03;;;;;;;7.53;3.87;;;;;;;16.84;100.00;98864.63;5312022;33;34051;-81
2023/10/31 12:15:10;;;;;;;8.55;4.18;;;;;;;16.78;100.00;98833.88;5310172;33;35386;-81
2023/10/31 12:18:13;;;;;;;7.50;4.78;;;;;;;16.69;100.00;98813.63;5328896;33;33830;-82
2023/10/31 12:21:16;;;;;;;10.40;4.78;;;;;;;16.56;100.00;98809.44;5330013;33;34362;-81
2023/10/31 12:24:19;;;;;;;7.87;4.05;;;;;;;15.73;100.00;98811.37;5307041;33;33790;-81
2023/10/31 12:27:22;;;;;;;7.35;3.95;;;;;;;15.01;100.00;98850.91;5281567;33;34943;-81
2023/10/31 12:30:25;;;;;;;6.70;3.50;;;;;;;14.47;100.00;98918.91;5299664;33;34952;-81
2023/10/31 12:33:28;;;;;;;8.90;3.87;;;;;;;14.13;100.00;99098.41;5307025;33;34002;-84
2023/10/31 12:36:31;;;;;;;6.50;3.35;;;;;;;13.91;100.00;99172.00;5291512;33;34174;-85
2023/10/31 12:39:37;;;;;;;7.43;3.22;;;;;;;13.52;100.00;99146.31;5342610;33;33513;-86
2023/10/31 12:42:43;;;;;;;6.53;3.97;;;;;;;13.30;100.00;99127.03;5324026;33;33661;-82
2023/10/31 12:45:46;;;;;;;5.78;3.33;;;;;;;13.08;100.00;99140.16;5335819;33;33972;-81
2023/10/31 12:48:49;;;;;;;7.68;3.12;;;;;;;12.99;100.00;99119.88;5292877;33;33786;-82
2023/10/31 12:52:00;;;;;;;6.37;3.28;;;;;;;12.75;100.00;99114.28;5298100;33;33661;-82
2023/10/31 12:55:13;;;;;;;5.00;2.87;;;;;;;12.79;100.00;99093.91;5324317;33;33896;-81
2023/10/31 12:58:21;;;;;;;8.07;2.92;;;;;;;12.72;100.00;99079.63;5324252;33;33770;-82
2023/10/31 13:01:24;;;;;;;4.95;2.92;;;;;;;12.60;100.00;99063.34;5323059;33;33616;-82
2023/10/31 13:04:29;;;;;;;4.47;2.97;;;;;;;12.64;100.00;99056.47;5304204;33;34187;-82
2023/10/31 13:07:33;;;;;;;6.60;3.85;;;;;;;12.70;100.00;99057.44;5307283;33;34093;-82
2023/10/31 13:10:35;;;;;;;5.70;3.70;;;;;;;12.75;100.00;99056.75;5299200;33;35106;-82
2023/10/31 13:13:38;;;;;;;7.18;3.50;;;;;;;12.79;100.00;99099.31;5299527;33;33944;-81
2023/10/31 13:16:42;;;;;;;7.68;3.85;;;;;;;12.84;100.00;99145.38;5323253;33;35231;-81
2023/10/31 13:19:44;;;;;;;7.37;4.25;;;;;;;12.91;100.00;99148.81;5321147;33;33932;-82
2023/10/31 13:22:48;;;;;;;9.40;4.03;;;;;;;12.95;100.00;99111.38;5280922;33;33842;-82
2023/10/31 13:25:51;;;;;;;11.45;3.85;;;;;;;13.01;100.00;99074.53;5306171;33;34630;-82
2023/10/31 13:28:54;;;;;;;9.98;4.20;;;;;;;12.98;100.00;99077.69;5313222;33;33338;-82
2023/10/31 13:31:58;;;;;;;7.57;3.97;;;;;;;12.85;100.00;99090.31;5328594;33;33834;-82
2023/10/31 13:35:01;;;;;;;10.70;4.25;;;;;;;12.79;100.00;99096.59;5316708;33;33879;-82
2023/10/31 13:38:04;;;;;;;9.00;4.00;;;;;;;12.75;100.00;99114.28;5330212;33;34555;-83
2023/10/31 13:41:07;;;;;;;8.48;4.10;;;;;;;12.71;100.00;99150.91;5301248;33;33475;-83
2023/10/31 13:44:10;;;;;;;5.03;3.62;;;;;;;12.67;100.00;99182.09;5312574;33;33598;-81
2023/10/31 13:47:13;;;;;;;5.28;3.10;;;;;;;12.72;100.00;99201.16;5312845;33;33777;-81
2023/10/31 13:50:19;;;;;;;5.80;2.95;;;;;;;12.77;100.00;99206.72;5324465;33;33868;-81
2023/10/31 13:53:22;;;;;;;3.97;2.70;;;;;;;12.71;100.00;99246.22;5289127;33;33695;-81
2023/10/31 13:56:26;;;;;;;3.53;2.30;;;;;;;12.62;100.00;99238.63;5325630;33;34739;-81
2023/10/31 13:59:28;;;;;;;3.95;2.17;;;;;;;12.54;100.00;99222.69;5326905;33;33926;-81
2023/10/31 14:02:32;;;;;;;1.55;1.25;;;;;;;12.44;100.00;99207.00;5327104;33;34646;-81
2023/10/31 14:05:38;;;;;;;2.22;1.25;;;;;;;12.23;100.00;99162.31;5342820;33;34219;-81
2023/10/31 14:08:41;;;;;;;1.15;1.05;;;;;;;12.13;100.00;99170.03;5329071;33;36036;-81
2023/10/31 14:11:44;;;;;;;1.15;1.00;;;;;;;11.99;100.00;99131.50;5326839;33;34050;-81
2023/10/31 14:14:48;;;;;;;1.05;0.95;;;;;;;11.95;100.00;99057.50;5287664;33;34494;-82
2023/10/31 14:17:52;;;;;;;0.90;0.90;;;;;;;11.84;100.00;99015.00;5300267;33;33785;-81
2023/10/31 14:20:55;;;;;;;2.87;1.12;;;;;;;11.73;100.00;98927.59;5320662;33;33762;-81
2023/10/31 14:23:59;;;;;;;3.20;1.20;;;;;;;11.66;100.00;98970.75;5319320;33;34602;-81
2023/10/31 14:27:12;;;;;;;1.10;1.00;;;;;;;11.62;100.00;99050.44;5316369;33;34285;-86
2023/10/31 14:30:17;;;;;;;1.75;1.40;;;;;;;11.65;100.00;99009.56;5310217;33;33804;-86
2023/10/31 14:33:20;;;;;;;1.48;1.37;;;;;;;11.64;100.00;99009.75;5307572;33;34473;-83
2023/10/31 14:36:24;;;;;;;1.37;1.20;;;;;;;11.63;100.00;99046.69;5304684;33;33501;-82
2023/10/31 14:39:27;;;;;;;1.40;1.30;;;;;;;11.63;100.00;99056.66;5318722;33;35047;-82
2023/10/31 14:42:30;;;;;;;1.40;1.30;;;;;;;11.69;100.00;99036.91;5323515;33;33481;-82
2023/10/31 14:45:33;;;;;;;1.27;1.17;;;;;;;11.74;100.00;99047.87;5335598;33;34232;-82
2023/10/31 14:48:36;;;;;;;1.30;1.20;;;;;;;11.68;100.00;99044.16;5325107;33;34025;-82
2023/10/31 14:51:41;;;;;;;2.72;1.37;;;;;;;11.65;100.00;99031.13;5328456;33;34069;-82
2023/10/31 14:54:44;;;;;;;1.15;1.10;;;;;;;11.68;100.00;99032.56;5308070;33;33880;-82
2023/10/31 14:57:47;;;;;;;1.70;1.60;;;;;;;11.68;100.00;99057.66;5324105;33;33732;-82
2023/10/31 15:00:51;;;;;;;1.62;1.50;;;;;;;11.72;100.00;99066.13;5312323;33;34606;-82
2023/10/31 15:03:54;;;;;;;2.22;1.60;;;;;;;11.78;100.00;99073.34;5300474;33;34118;-83
2023/10/31 15:06:58;;;;;;;3.37;2.00;;;;;;;11.77;100.00;99115.66;5325106;33;33954;-82
2023/10/31 15:10:02;;;;;;;1.60;1.50;;;;;;;11.84;100.00;99141.75;5312271;33;33583;-82
2023/10/31 15:13:05;;;;;;;2.08;1.87;;;;;;;11.84;100.00;99157.94;5324097;33;33616;-83
2023/10/31 15:16:10;;;;;;;4.82;1.60;;;;;;;11.78;100.00;99178.50;5324843;33;33883;-83
2023/10/31 15:19:13;;;;;;;1.77;1.67;;;;;;;11.74;100.00;99185.37;5307378;33;164091;-82
2023/10/31 15:22:16;;;;;;;2.58;1.70;;;;;;;11.72;100.00;99211.72;5300661;33;33459;-83
2023/10/31 15:25:19;;;;;;;2.35;1.85;;;;;;;11.70;100.00;99224.56;5310748;33;34977;-83
2023/10/31 15:28:22;;;;;;;3.47;1.75;;;;;;;11.74;100.00;99225.81;5285884;33;34579;-83
2023/10/31 15:31:25;;;;;;;2.80;1.73;;;;;;;11.74;100.00;99221.25;5323288;33;33756;-83
2023/10/31 15:34:28;;;;;;;2.30;1.65;;;;;;;11.76;100.00;99251.53;5318598;33;33437;-83
2023/10/31 15:37:31;;;;;;;2.17;2.03;;;;;;;11.77;100.00;99263.13;5329798;33;33478;-82
2023/10/31 15:40:34;;;;;;;1.90;1.80;;;;;;;11.80;100.00;99273.50;5321344;33;33623;-82
2023/10/31 15:43:37;;;;;;;1.70;1.60;;;;;;;11.78;100.00;99275.56;5318573;33;34108;-83
2023/10/31 15:46:40;;;;;;;2.03;1.40;;;;;;;11.79;100.00;99278.06;5312119;33;33787;-82
2023/10/31 15:49:43;;;;;;;2.20;1.55;;;;;;;11.79;100.00;99272.69;5312375;33;33759;-83
2023/10/31 15:52:46;;;;;;;1.87;1.48;;;;;;;11.76;100.00;99281.19;5310504;33;34899;-82
2023/10/31 15:55:49;;;;;;;1.70;1.52;;;;;;;11.76;100.00;99280.38;5330130;33;33544;-83
2023/10/31 15:58:52;;;;;;;1.62;1.45;;;;;;;11.85;100.00;99275.56;5319597;33;34274;-83
2023/10/31 16:01:55;;;;;;;1.20;1.10;;;;;;;11.79;100.00;99279.94;5311576;33;34720;-82
2023/10/31 16:04:58;;;;;;;1.87;1.40;;;;;;;11.79;100.00;99288.03;5323641;33;34487;-83
2023/10/31 16:08:01;;;;;;;2.85;1.35;;;;;;;11.76;100.00;99278.50;5320289;33;35337;-82
2023/10/31 16:11:05;;;;;;;1.67;1.37;;;;;;;11.78;100.00;99286.34;5337689;33;34178;-83
2023/10/31 16:14:08;;;;;;;2.05;1.02;;;;;;;11.71;100.00;99282.88;5339531;33;34693;-84
2023/10/31 16:17:12;;;;;;;1.05;1.05;;;;;;;11.61;100.00;99304.84;5332126;33;34313;-84
2023/10/31 16:20:15;;;;;;;3.45;1.25;;;;;;;11.57;100.00;99311.72;5310879;33;34125;-84
2023/10/31 16:23:20;;;;;;;1.05;1.05;;;;;;;11.52;100.00;99300.72;5300548;33;34836;-84
2023/10/31 16:26:23;;;;;;;1.37;1.00;;;;;;;11.48;100.00;99315.69;5292222;33;32824;-84
2023/10/31 16:29:26;;;;;;;1.40;1.30;;;;;;;11.42;100.00;99317.34;5310894;33;33663;-84
2023/10/31 16:32:28;;;;;;;1.50;1.40;;;;;;;11.45;100.00;99314.22;5310162;33;33543;-84
2023/10/31 16:35:31;;;;;;;2.00;1.25;;;;;;;11.43;100.00;99321.69;5318552;33;33184;-84
2023/10/31 16:38:34;;;;;;;1.45;1.27;;;;;;;11.44;100.00;99317.16;5312815;33;33593;-87
2023/10/31 16:41:38;;;;;;;1.75;1.27;;;;;;;11.48;100.00;99323.75;5328589;33;33934;-87
2023/10/31 16:44:41;;;;;;;1.52;1.42;;;;;;;11.48;100.00;99321.88;5322468;33;35424;-87
2023/10/31 16:47:44;;;;;;;1.40;1.30;;;;;;;11.45;100.00;99316.09;5298755;33;34302;-88
2023/10/31 16:50:48;;;;;;;2.65;1.30;;;;;;;11.32;100.00;99327.72;5327231;33;33858;-84
2023/10/31 16:53:51;;;;;;;1.60;1.50;;;;;;;11.25;100.00;99334.97;5306540;33;34614;-84
2023/10/31 16:56:54;;;;;;;1.30;1.20;;;;;;;11.20;100.00;99350.91;5300040;33;34309;-84
2023/10/31 16:59:57;;;;;;;5.05;1.70;;;;;;;11.16;100.00;99363.16;5322562;33;34119;-84
2023/10/31 17:03:00;;;;;;;2.35;1.58;;;;;;;11.11;100.00;99380.78;5305690;33;33721;-84
2023/10/31 17:06:04;;;;;;;3.65;1.50;;;;;;;11.12;100.00;99390.50;5306973;33;33879;-84
2023/10/31 17:09:07;;;;;;;2.15;1.50;;;;;;;11.17;100.00;99406.03;5294528;33;34716;-84
2023/10/31 17:12:10;;;;;;;2.47;1.50;;;;;;;11.24;100.00;99424.94;5293934;33;33516;-84
2023/10/31 17:15:12;;;;;;;1.83;1.37;;;;;;;11.34;100.00;99452.28;5298724;33;32334;-83
2023/10/31 17:18:16;;;;;;;1.45;1.27;;;;;;;11.38;100.00;99458.94;5307096;33;33913;-84
2023/10/31 17:21:21;;;;;;;2.78;1.37;;;;;;;11.39;100.00;99465.97;5295222;33;33671;-84
2023/10/31 17:24:24;;;;;;;2.72;1.60;;;;;;;11.41;100.00;99477.41;5317584;33;35381;-83
2023/10/31 17:27:28;;;;;;;1.55;1.45;;;;;;;11.44;100.00;99473.47;5300507;33;33774;-83
2023/10/31 17:30:31;;;;;;;2.92;1.52;;;;;;;11.52;100.00;99478.62;5308723;33;33796;-84
2023/10/31 17:33:33;;;;;;;2.78;1.65;;;;;;;11.52;100.00;99468.69;5300494;33;33552;-83
2023/10/31 17:36:37;;;;;;;1.60;1.50;;;;;;;11.54;100.00;99481.97;5294181;33;33894;-84
2023/10/31 17:39:40;;;;;;;2.33;1.55;;;;;;;11.64;100.00;99473.44;5281893;33;33869;-84
2023/10/31 17:42:43;;;;;;;1.87;1.77;;;;;;;11.65;100.00;99480.53;5293884;33;35372;-84
2023/10/31 17:45:47;;;;;;;3.45;1.65;;;;;;;11.65;100.00;99484.03;5282243;33;34830;-84
2023/10/31 17:48:51;;;;;;;1.30;1.23;;;;;;;11.69;100.00;99487.16;5310846;33;34022;-84
2023/10/31 17:51:54;;;;;;;1.37;1.27;;;;;;;11.71;100.00;99485.09;5300308;33;33780;-84
